Time;durP1;ratioP1;P1;durP2;ratioP2;P2;SDS_P1;SDS_P2;PMS_P1;PMS_P2;Temp;Humidity;BMP_temperature;BMP_pressure;BME280_temperature;BME280_humidity;BME280_pressure;Samples;Min_cycle;Max_cycle;Signal;HPM_P1;HPM_P2
2023/07/25 00:02:23;;;;;;;8.73;5.68;;;;;;;22.04;81.43;98239.97;5055178;28;20055;-85
2023/07/25 00:04:49;;;;;;;7.05;5.55;;;;;;;21.95;81.52;98246.34;5055136;28;20060;-85
2023/07/25 00:07:14;;;;;;;8.70;5.90;;;;;;;21.88;82.14;98246.25;5055119;28;20025;-85
2023/07/25 00:09:39;;;;;;;8.70;5.25;;;;;;;21.86;82.04;98245.56;5054946;28;20103;-85
2023/07/25 00:12:05;;;;;;;6.40;5.55;;;;;;;21.81;82.41;98250.59;5012292;28;20033;-85
2023/07/25 00:14:32;;;;;;;9.65;6.18;;;;;;;21.74;82.99;98249.63;5012875;28;20033;-85
2023/07/25 00:16:57;;;;;;;10.60;6.10;;;;;;;21.65;83.13;98248.88;5012419;28;20128;-85
2023/07/25 00:19:23;;;;;;;7.68;6.00;;;;;;;21.43;83.89;98225.84;5012813;28;20133;-85
2023/07/25 00:21:48;;;;;;;7.47;5.35;;;;;;;21.43;83.94;98250.50;5012740;28;20038;-85
2023/07/25 00:24:13;;;;;;;5.57;4.93;;;;;;;21.37;83.90;98245.91;4995923;28;20112;-85
2023/07/25 00:26:39;;;;;;;11.57;5.88;;;;;;;21.45;84.11;98271.53;5012553;28;20084;-85
2023/07/25 00:29:04;;;;;;;6.10;5.25;;;;;;;21.36;84.32;98267.25;5012282;28;20037;-85
2023/07/25 00:31:29;;;;;;;7.78;6.00;;;;;;;21.35;84.24;98273.56;5012425;28;20390;-85
2023/07/25 00:33:55;;;;;;;8.30;4.72;;;;;;;21.22;83.90;98260.84;5012535;28;20029;-85
2023/07/25 00:36:20;;;;;;;6.05;4.90;;;;;;;21.16;84.12;98258.91;4995658;28;20041;-85
2023/07/25 00:38:45;;;;;;;9.00;5.13;;;;;;;21.20;83.93;98264.69;5012158;28;20041;-85
2023/07/25 00:41:11;;;;;;;7.82;5.38;;;;;;;21.07;84.17;98247.53;4995554;28;20543;-85
2023/07/25 00:43:36;;;;;;;6.80;4.85;;;;;;;20.93;84.45;98230.53;5042459;28;20078;-85
2023/07/25 00:46:01;;;;;;;6.82;5.13;;;;;;;21.00;84.67;98251.88;5054219;28;20025;-85
2023/07/25 00:48:28;;;;;;;7.32;4.13;;;;;;;21.09;84.49;98268.53;5054379;28;20060;-85
2023/07/25 00:50:54;;;;;;;8.50;4.63;;;;;;;21.00;84.71;98259.81;5054557;28;20036;-85
2023/07/25 00:53:20;;;;;;;7.32;4.90;;;;;;;21.13;85.10;98283.91;5054291;28;20033;-85
2023/07/25 00:55:47;;;;;;;8.07;4.97;;;;;;;21.06;85.18;98280.28;5054015;28;20029;-85
2023/07/25 00:58:12;;;;;;;7.03;4.60;;;;;;;20.97;85.17;98256.66;5053614;28;20507;-85
2023/07/25 01:00:38;;;;;;;6.78;4.72;;;;;;;21.08;85.11;98264.25;5053325;28;20029;-85
2023/07/25 01:03:04;;;;;;;7.22;5.18;;;;;;;21.24;84.99;98285.34;5035873;28;20095;-85
2023/07/25 01:05:32;;;;;;;8.48;5.10;;;;;;;21.22;85.23;98282.03;5054267;28;20492;-85
2023/07/25 01:07:57;;;;;;;9.48;6.20;;;;;;;21.01;85.79;98257.97;5054037;28;20029;-85
2023/07/25 01:10:23;;;;;;;8.43;5.45;;;;;;;21.09;86.26;98276.47;5053841;28;20051;-85
2023/07/25 01:12:48;;;;;;;7.50;5.95;;;;;;;21.03;87.22;98285.13;5053926;28;20033;-85
2023/07/25 01:15:14;;;;;;;7.80;6.03;;;;;;;20.94;87.83;98286.94;5053627;28;20550;-85
2023/07/25 01:17:39;;;;;;;11.63;6.43;;;;;;;20.75;88.56;98271.47;5053592;28;20049;-85
2023/07/25 01:20:08;;;;;;;7.55;6.38;;;;;;;20.79;88.91;98294.78;5053392;28;20120;-85
2023/07/25 01:22:36;;;;;;;6.85;5.43;;;;;;;20.84;88.73;98304.84;5053646;28;20029;-85
2023/07/25 01:25:02;;;;;;;7.65;6.43;;;;;;;20.70;89.47;98298.44;5053411;28;20028;-85
2023/07/25 01:27:27;;;;;;;11.50;6.72;;;;;;;20.63;89.96;98292.97;5053734;28;20025;-85
2023/07/25 01:29:52;;;;;;;11.40;5.97;;;;;;;20.48;89.63;98273.53;5053683;28;20075;-86
2023/07/25 01:32:18;;;;;;;11.20;6.47;;;;;;;20.56;90.50;98297.31;5053368;28;20033;-86
2023/07/25 01:34:43;;;;;;;8.27;5.55;;;;;;;20.52;90.26;98287.22;5053470;28;20029;-85
2023/07/25 01:37:08;;;;;;;10.15;6.32;;;;;;;20.51;90.25;98291.69;5053350;28;20373;-85
2023/07/25 01:39:34;;;;;;;7.53;5.57;;;;;;;20.42;90.21;98288.19;5053473;28;20446;-85
2023/07/25 01:41:59;;;;;;;10.38;5.40;;;;;;;20.41;90.27;98288.38;5053404;28;20029;-85
2023/07/25 01:44:24;;;;;;;11.48;4.78;;;;;;;20.39;90.03;98293.84;5035167;28;20036;-85
2023/07/25 01:46:50;;;;;;;6.55;4.18;;;;;;;20.32;89.39;98289.38;5053222;28;20025;-85
2023/07/25 01:49:15;;;;;;;7.65;3.88;;;;;;;20.35;88.68;98296.94;5053213;28;20039;-85
2023/07/25 01:51:40;;;;;;;5.20;4.28;;;;;;;20.15;88.61;98267.41;5053112;28;20382;-85
2023/07/25 01:54:06;;;;;;;5.07;3.70;;;;;;;20.00;88.09;98251.38;5052718;28;20025;-85
2023/07/25 01:56:31;;;;;;;6.53;4.07;;;;;;;20.15;88.08;98280.63;5035320;28;20036;-85
2023/07/25 01:58:57;;;;;;;7.28;4.40;;;;;;;20.28;87.85;98299.44;5052963;28;20032;-85
2023/07/25 02:01:22;;;;;;;5.25;3.95;;;;;;;20.28;87.70;98285.41;5052712;28;20115;-85
2023/07/25 02:03:48;;;;;;;5.78;3.40;;;;;;;20.25;87.46;98285.72;5052987;28;20037;-85
2023/07/25 02:06:13;;;;;;;6.85;3.67;;;;;;;20.25;87.11;98291.84;5052334;28;20035;-86
2023/07/25 02:08:38;;;;;;;5.07;3.38;;;;;;;20.05;87.29;98274.66;5052600;28;20021;-85
2023/07/25 02:11:04;;;;;;;5.30;3.28;;;;;;;20.02;87.47;98270.53;5052113;28;20491;-85
2023/07/25 02:13:29;;;;;;;4.40;3.60;;;;;;;20.13;87.58;98287.88;5052337;28;20056;-85
2023/07/25 02:15:54;;;;;;;6.25;3.58;;;;;;;20.11;87.54;98289.88;5052561;28;20032;-85
2023/07/25 02:18:20;;;;;;;4.55;3.17;;;;;;;20.08;87.58;98287.56;5051967;28;20504;-86
2023/07/25 02:20:45;;;;;;;4.20;2.75;;;;;;;20.00;88.11;98287.53;5052446;28;20082;-85
2023/07/25 02:23:10;;;;;;;3.60;3.20;;;;;;;19.96;88.19;98286.22;5052266;28;20028;-85
2023/07/25 02:25:36;;;;;;;3.42;3.13;;;;;;;19.90;88.23;98288.53;5052530;28;20032;-85
2023/07/25 02:28:01;;;;;;;5.18;3.25;;;;;;;19.86;88.58;98296.97;5052343;28;20040;-85
2023/07/25 02:30:26;;;;;;;5.53;3.33;;;;;;;19.89;88.92;98309.84;5034361;28;20032;-85
2023/07/25 02:32:52;;;;;;;5.00;3.40;;;;;;;19.86;89.19;98308.34;5052339;28;20063;-85
2023/07/25 02:35:17;;;;;;;4.70;3.60;;;;;;;19.80;88.88;98300.22;5052110;28;20029;-85
2023/07/25 02:37:43;;;;;;;5.70;3.38;;;;;;;19.77;89.29;98306.69;5052072;28;20032;-85
2023/07/25 02:40:08;;;;;;;4.55;3.35;;;;;;;19.64;89.62;98285.22;5034219;28;20017;-85
2023/07/25 02:42:34;;;;;;;8.07;3.67;;;;;;;19.61;89.74;98288.16;5052211;28;20025;-85
2023/07/25 02:44:59;;;;;;;4.35;3.38;;;;;;;19.67;89.93;98308.63;5052172;28;20068;-85
2023/07/25 02:47:25;;;;;;;5.35;4.43;;;;;;;19.45;90.33;98276.53;5051974;28;20408;-86
2023/07/25 02:49:50;;;;;;;3.88;3.33;;;;;;;19.50;90.26;98304.28;5052227;28;20029;-85
2023/07/25 02:52:17;;;;;;;3.90;3.45;;;;;;;19.47;90.44;98297.50;5051781;28;20710;-85
2023/07/25 02:54:42;;;;;;;4.45;3.20;;;;;;;19.40;90.45;98283.28;5051958;28;20661;-85
2023/07/25 02:57:07;;;;;;;4.03;3.03;;;;;;;19.53;90.78;98312.69;5051833;28;20032;-85
2023/07/25 02:59:33;;;;;;;3.70;3.28;;;;;;;19.42;90.92;98316.47;5034116;28;20067;-86
2023/07/25 03:01:58;;;;;;;4.63;3.60;;;;;;;19.27;91.53;98294.31;5052064;28;20025;-85
2023/07/25 03:04:23;;;;;;;5.70;3.08;;;;;;;19.35;91.31;98302.25;5033742;28;20463;-85
2023/07/25 03:06:49;;;;;;;3.75;2.80;;;;;;;19.24;92.25;98288.50;5033920;28;20033;-85
2023/07/25 03:09:14;;;;;;;4.10;3.38;;;;;;;19.29;92.07;98307.34;5051655;28;20067;-85
2023/07/25 03:11:39;;;;;;;4.03;3.10;;;;;;;19.39;92.29;98319.44;5052023;28;20028;-85
2023/07/25 03:14:05;;;;;;;3.15;2.67;;;;;;;19.34;92.37;98316.44;5052229;28;20021;-85
2023/07/25 03:16:30;;;;;;;4.55;3.55;;;;;;;19.30;92.74;98315.13;5051535;28;20064;-85
2023/07/25 03:18:56;;;;;;;4.05;2.88;;;;;;;19.19;92.60;98303.03;5051698;28;20032;-85
2023/07/25 03:21:21;;;;;;;4.53;3.33;;;;;;;19.29;92.98;98326.63;5051515;28;20491;-85
2023/07/25 03:23:46;;;;;;;3.47;3.17;;;;;;;19.17;93.38;98309.44;5055214;28;20032;-85
2023/07/25 03:26:12;;;;;;;3.30;3.00;;;;;;;19.28;93.26;98319.72;5055669;28;20025;-85
2023/07/25 03:28:37;;;;;;;4.20;3.03;;;;;;;19.26;93.22;98323.50;5055930;28;20036;-85
2023/07/25 03:31:03;;;;;;;3.42;3.00;;;;;;;19.16;93.63;98315.69;5055805;28;20032;-85
2023/07/25 03:33:29;;;;;;;3.33;2.88;;;;;;;19.16;93.55;98300.69;5055449;28;20621;-85
2023/07/25 03:35:54;;;;;;;3.63;3.10;;;;;;;19.28;93.27;98310.97;5037710;28;20033;-85
2023/07/25 03:38:20;;;;;;;6.47;3.20;;;;;;;19.26;93.63;98323.50;5055483;28;20025;-85
2023/07/25 03:40:46;;;;;;;3.88;2.80;;;;;;;19.01;93.76;98283.00;5055648;28;20039;-85
2023/07/25 03:43:12;;;;;;;4.70;2.97;;;;;;;19.13;94.04;98302.81;5055719;28;20035;-85
2023/07/25 03:45:37;;;;;;;5.13;3.35;;;;;;;19.10;94.38;98298.69;5055536;28;20457;-85
2023/07/25 03:48:03;;;;;;;4.88;3.10;;;;;;;18.97;94.26;98277.19;5055497;28;20032;-85
2023/07/25 03:50:29;;;;;;;3.45;3.15;;;;;;;18.92;94.55;98279.50;5055261;28;20025;-85
2023/07/25 03:52:56;;;;;;;5.55;3.50;;;;;;;18.97;95.02;98297.50;5037543;28;20048;-85
2023/07/25 03:55:22;;;;;;;4.45;3.47;;;;;;;18.94;95.58;98296.81;5055241;28;20032;-85
2023/07/25 03:57:47;;;;;;;4.15;2.97;;;;;;;19.05;95.26;98305.44;5055242;28;20025;-85
2023/07/25 04:00:13;;;;;;;4.00;3.03;;;;;;;18.98;95.58;98291.22;5037138;28;20032;-85
2023/07/25 04:02:38;;;;;;;4.45;3.08;;;;;;;19.14;95.58;98326.44;5055521;28;20048;-85
2023/07/25 04:05:04;;;;;;;3.33;2.70;;;;;;;19.15;95.60;98314.06;5037226;28;20029;-85
2023/07/25 04:07:29;;;;;;;3.40;3.10;;;;;;;19.25;95.10;98317.38;5055126;28;20115;-85
2023/07/25 04:09:54;;;;;;;5.93;3.45;;;;;;;19.33;95.00;98314.78;5055412;28;20139;-85
2023/07/25 04:12:20;;;;;;;3.92;2.95;;;;;;;19.35;94.70;98306.72;5054628;28;20025;-85
2023/07/25 04:14:45;;;;;;;5.10;3.30;;;;;;;20.00;93.36;98333.28;5054948;28;20033;-86
2023/07/25 04:17:10;;;;;;;3.75;3.30;;;;;;;21.29;88.08;98319.25;5055046;28;20055;-86
2023/07/25 04:19:36;;;;;;;5.13;3.10;;;;;;;22.74;81.97;98339.66;5054384;28;20099;-86
2023/07/25 04:22:01;;;;;;;3.50;2.78;;;;;;;23.25;79.66;98350.44;5054733;28;20052;-86
2023/07/25 04:24:26;;;;;;;3.55;3.15;;;;;;;23.22;79.04;98347.31;5054576;28;20060;-86
2023/07/25 04:26:52;;;;;;;3.13;2.83;;;;;;;23.07;79.38;98332.22;5054807;28;20051;-86
2023/07/25 04:29:17;;;;;;;3.92;3.05;;;;;;;23.02;79.17;98323.97;5036536;28;20104;-86
2023/07/25 04:31:42;;;;;;;3.97;2.92;;;;;;;23.19;78.81;98321.97;5054896;28;20449;-87
2023/07/25 04:34:08;;;;;;;4.03;3.03;;;;;;;23.74;77.12;98333.91;5036430;28;20040;-86
2023/07/25 04:36:33;;;;;;;3.38;3.08;;;;;;;24.92;73.76;98340.50;5036317;28;20033;-86
2023/07/25 04:38:58;;;;;;;3.22;2.92;;;;;;;26.34;69.05;98348.66;5054575;28;20481;-87
2023/07/25 04:41:23;;;;;;;3.83;3.42;;;;;;;27.48;66.00;98346.69;5054299;28;20036;-87
2023/07/25 04:43:49;;;;;;;5.32;3.38;;;;;;;27.84;64.61;98348.81;5054431;28;20539;-86
2023/07/25 04:46:14;;;;;;;3.88;2.80;;;;;;;27.49;64.70;98361.69;5054095;28;20037;-86
2023/07/25 04:48:39;;;;;;;3.13;2.83;;;;;;;26.72;66.14;98332.06;5054553;28;20052;-87
2023/07/25 04:51:05;;;;;;;3.03;2.38;;;;;;;26.30;67.39;98347.41;5054189;28;20028;-87
2023/07/25 04:53:30;;;;;;;5.30;3.45;;;;;;;25.91;68.58;98344.66;5053959;28;20021;-86
2023/07/25 04:55:55;;;;;;;3.05;2.47;;;;;;;25.88;68.15;98340.59;5054219;28;20033;-86
2023/07/25 04:58:21;;;;;;;2.97;2.70;;;;;;;26.44;67.24;98360.78;5053924;28;20025;-87
2023/07/25 05:00:47;;;;;;;3.70;2.85;;;;;;;27.43;64.39;98342.00;5054215;28;20029;-87
2023/07/25 05:03:12;;;;;;;3.55;2.60;;;;;;;28.67;61.61;98329.91;5036222;28;20408;-87
2023/07/25 05:05:37;;;;;;;3.30;2.80;;;;;;;29.64;59.73;98348.13;5053923;28;20024;-85
2023/07/25 05:08:03;;;;;;;5.80;3.10;;;;;;;29.50;59.42;98334.84;5054430;28;20036;-87
2023/07/25 05:10:28;;;;;;;4.35;2.85;;;;;;;28.80;60.74;98328.97;5053626;28;20025;-87
2023/07/25 05:12:53;;;;;;;3.35;3.05;;;;;;;28.16;62.44;98343.47;5053938;28;20028;-86
2023/07/25 05:15:19;;;;;;;4.00;2.92;;;;;;;27.63;63.62;98339.22;5053641;28;20107;-87
2023/07/25 05:17:44;;;;;;;4.95;2.67;;;;;;;27.32;64.15;98342.63;5054076;28;20069;-87
2023/07/25 05:20:10;;;;;;;2.75;2.55;;;;;;;27.62;63.81;98334.91;5053611;28;20055;-87
2023/07/25 05:22:35;;;;;;;3.28;2.95;;;;;;;28.30;61.99;98331.63;5053742;28;20439;-86
2023/07/25 05:25:00;;;;;;;3.22;2.72;;;;;;;29.46;59.45;98327.47;5053842;28;20520;-87
2023/07/25 05:27:26;;;;;;;3.30;3.00;;;;;;;30.21;57.82;98352.06;5053474;28;20476;-87
2023/07/25 05:29:51;;;;;;;3.67;2.83;;;;;;;30.11;57.72;98335.69;5053661;28;20365;-87
2023/07/25 05:32:16;;;;;;;2.85;2.45;;;;;;;29.54;58.63;98340.56;5053535;28;20028;-87
2023/07/25 05:34:42;;;;;;;3.90;3.17;;;;;;;28.73;60.33;98346.97;5053268;28;20021;-87
2023/07/25 05:37:07;;;;;;;3.85;2.80;;;;;;;28.22;61.78;98342.59;5035583;28;20029;-87
2023/07/25 05:39:32;;;;;;;2.92;2.72;;;;;;;27.78;62.96;98341.66;5052964;28;20029;-87
2023/07/25 05:41:58;;;;;;;3.03;2.72;;;;;;;27.64;63.33;98343.50;5053360;28;20029;-87
2023/07/25 05:44:23;;;;;;;2.90;2.60;;;;;;;27.59;63.17;98357.53;5053285;28;20036;-86
2023/07/25 05:46:48;;;;;;;4.53;2.97;;;;;;;27.32;63.67;98367.50;5052609;28;20033;-87
2023/07/25 05:49:14;;;;;;;3.67;2.80;;;;;;;26.89;64.54;98344.97;5035094;28;20036;-86
2023/07/25 05:51:39;;;;;;;2.72;2.50;;;;;;;26.30;65.79;98323.41;5035054;28;20032;-86
2023/07/25 05:54:04;;;;;;;2.67;2.47;;;;;;;26.17;66.89;98366.09;5053170;28;20112;-86
2023/07/25 05:56:30;;;;;;;3.30;3.00;;;;;;;25.84;67.43;98366.81;5052860;28;20099;-87
2023/07/25 05:58:55;;;;;;;2.80;2.60;;;;;;;25.55;68.03;98373.25;5052896;28;20108;-86
2023/07/25 06:01:20;;;;;;;3.55;2.58;;;;;;;25.37;68.90;98372.97;5053018;28;20455;-86
2023/07/25 06:03:45;;;;;;;4.13;3.00;;;;;;;25.20;69.24;98358.28;5052792;28;20461;-86
2023/07/25 06:06:11;;;;;;;3.75;2.58;;;;;;;25.18;69.43;98371.81;5053041;28;20029;-86
2023/07/25 06:08:36;;;;;;;4.13;3.25;;;;;;;24.97;70.32;98347.91;5052652;28;20032;-86
2023/07/25 06:11:01;;;;;;;3.63;2.50;;;;;;;24.97;70.49;98359.38;5052767;28;20465;-87
2023/07/25 06:13:27;;;;;;;3.60;3.00;;;;;;;25.01;70.63;98373.13;5052529;28;20381;-86
2023/07/25 06:15:53;;;;;;;3.53;2.90;;;;;;;25.04;70.82;98375.41;5052654;28;20114;-86
2023/07/25 06:18:19;;;;;;;4.88;3.22;;;;;;;25.12;70.10;98375.28;5052415;28;20382;-87
2023/07/25 06:20:46;;;;;;;4.60;3.38;;;;;;;25.34;70.29;98373.34;5052152;28;20029;-87
2023/07/25 06:23:11;;;;;;;3.67;3.08;;;;;;;25.59;69.16;98371.84;5034722;28;20056;-87
2023/07/25 06:25:37;;;;;;;4.95;2.75;;;;;;;25.84;68.30;98372.16;5052348;28;20389;-87
2023/07/25 06:28:04;;;;;;;3.75;3.03;;;;;;;26.08;67.62;98384.16;5034752;28;20059;-87
2023/07/25 06:30:30;;;;;;;2.95;2.65;;;;;;;26.25;66.45;98371.25;5052228;28;20531;-87
2023/07/25 06:32:55;;;;;;;3.33;2.92;;;;;;;26.42;65.99;98373.50;5052479;28;20024;-87
2023/07/25 06:35:22;;;;;;;3.65;3.25;;;;;;;26.89;64.79;98398.41;5052590;28;20128;-87
2023/07/25 06:37:48;;;;;;;5.55;3.30;;;;;;;26.96;63.78;98385.84;5034491;28;20025;-87
2023/07/25 06:40:14;;;;;;;3.00;2.80;;;;;;;27.20;64.03;98398.59;5052192;28;20469;-87
2023/07/25 06:42:39;;;;;;;3.55;3.03;;;;;;;27.31;63.55;98399.81;5052146;28;20091;-87
2023/07/25 06:45:05;;;;;;;3.35;2.97;;;;;;;27.49;63.67;98405.31;5034704;28;20021;-87
2023/07/25 06:47:31;;;;;;;3.78;2.40;;;;;;;27.79;62.07;98408.31;5051841;28;20440;-87
2023/07/25 06:49:57;;;;;;;4.10;3.70;;;;;;;27.97;61.15;98401.44;5034338;28;20056;-87
2023/07/25 06:52:23;;;;;;;3.40;3.10;;;;;;;28.57;60.33;98418.81;5052002;28;20112;-87
2023/07/25 06:54:48;;;;;;;4.68;3.65;;;;;;;28.86;59.22;98411.16;5052165;28;20096;-87
2023/07/25 06:57:13;;;;;;;3.25;2.92;;;;;;;28.76;58.78;98400.13;5051177;28;20029;-87
2023/07/25 06:59:39;;;;;;;3.47;2.97;;;;;;;28.64;58.72;98413.41;5051931;28;20079;-87
2023/07/25 07:02:04;;;;;;;3.85;2.90;;;;;;;28.65;58.61;98417.72;5051881;28;20029;-87
2023/07/25 07:04:29;;;;;;;3.80;3.13;;;;;;;28.79;57.76;98432.66;5033770;28;20040;-87
2023/07/25 07:06:55;;;;;;;4.60;3.22;;;;;;;29.07;58.09;98424.19;5052384;28;20074;-87
2023/07/25 07:09:20;;;;;;;4.55;3.13;;;;;;;29.50;57.62;98438.66;5034170;28;20029;-87
2023/07/25 07:11:46;;;;;;;2.75;2.50;;;;;;;29.78;56.00;98424.72;5051751;28;20023;-87
2023/07/25 07:14:11;;;;;;;3.58;3.08;;;;;;;30.24;55.99;98437.56;5051895;28;20056;-87
2023/07/25 07:16:36;;;;;;;3.20;2.90;;;;;;;30.94;55.41;98441.50;5051495;28;20463;-87
2023/07/25 07:19:02;;;;;;;3.25;2.90;;;;;;;31.75;53.92;98439.84;5051551;28;20369;-87
2023/07/25 07:21:27;;;;;;;3.00;2.80;;;;;;;31.92;53.30;98424.59;5051827;28;20036;-87
2023/07/25 07:23:53;;;;;;;4.75;3.65;;;;;;;32.28;52.60;98412.63;5034156;28;20392;-87
2023/07/25 07:26:18;;;;;;;3.00;2.70;;;;;;;33.52;51.92;98418.94;5051736;28;20029;-87
2023/07/25 07:28:43;;;;;;;4.82;3.70;;;;;;;34.43;50.09;98412.97;5033577;28;20101;-87
2023/07/25 07:31:09;;;;;;;4.07;3.67;;;;;;;35.20;49.29;98393.56;5051627;28;20404;-87
2023/07/25 07:33:35;;;;;;;4.32;2.92;;;;;;;36.00;47.79;98385.28;5050082;28;20116;-87
2023/07/25 07:36:01;;;;;;;4.60;2.95;;;;;;;36.14;46.94;98369.31;5051872;28;20033;-87
2023/07/25 07:38:26;;;;;;;3.67;3.38;;;;;;;35.66;47.06;98349.66;5050836;28;20086;-87
2023/07/25 07:40:51;;;;;;;3.03;2.72;;;;;;;35.17;47.31;98345.38;5051044;28;20029;-87
2023/07/25 07:43:17;;;;;;;3.13;2.72;;;;;;;34.44;48.02;98333.50;5049884;28;20033;-87
2023/07/25 07:45:42;;;;;;;2.95;2.72;;;;;;;33.07;49.61;98301.19;5051032;28;20041;-87
2023/07/25 07:48:08;;;;;;;2.85;2.65;;;;;;;31.78;51.65;98294.81;5050994;28;20029;-87
2023/07/25 07:50:33;;;;;;;2.85;2.65;;;;;;;30.80;53.11;98301.94;5033139;28;20485;-87
2023/07/25 07:52:59;;;;;;;4.40;3.13;;;;;;;29.88;54.77;98293.50;5051131;28;20028;-88
2023/07/25 07:55:24;;;;;;;3.13;2.83;;;;;;;29.41;55.93;98313.88;5051445;28;20538;-88
2023/07/25 07:57:50;;;;;;;3.83;3.10;;;;;;;30.17;56.38;98320.53;5051310;28;20025;-87
2023/07/25 08:00:15;;;;;;;3.30;3.00;;;;;;;31.61;53.50;98325.44;5052157;28;20079;-87
2023/07/25 08:02:42;;;;;;;3.88;2.85;;;;;;;32.26;52.24;98325.00;5033290;28;20025;-88
2023/07/25 08:05:08;;;;;;;3.22;2.92;;;;;;;33.01;50.31;98337.28;5033718;28;20082;-88
2023/07/25 08:07:34;;;;;;;3.00;2.55;;;;;;;33.38;50.00;98345.59;5033340;28;20029;-88
2023/07/25 08:09:59;;;;;;;5.35;2.80;;;;;;;33.44;50.43;98339.22;5036806;28;20491;-88
2023/07/25 08:12:25;;;;;;;3.35;2.70;;;;;;;33.45;50.38;98357.03;5055062;28;20021;-88
2023/07/25 08:14:50;;;;;;;2.83;2.55;;;;;;;32.90;50.51;98352.44;5054786;28;20032;-88
2023/07/25 08:17:16;;;;;;;2.85;2.63;;;;;;;32.14;51.30;98352.00;5054960;28;20120;-88
2023/07/25 08:19:41;;;;;;;2.92;2.72;;;;;;;31.21;52.06;98343.16;5054720;28;20021;-88
2023/07/25 08:22:07;;;;;;;2.55;2.35;;;;;;;30.43;53.49;98373.06;5055298;28;20484;-88
2023/07/25 08:24:32;;;;;;;3.30;2.70;;;;;;;29.76;55.08;98365.09;5054883;28;20024;-88
2023/07/25 08:26:59;;;;;;;3.88;2.85;;;;;;;29.24;55.52;98370.81;5036766;28;20086;-87
2023/07/25 08:29:25;;;;;;;3.80;3.13;;;;;;;28.72;57.01;98390.88;5036939;28;20031;-87
2023/07/25 08:31:50;;;;;;;3.25;2.95;;;;;;;28.24;59.07;98388.75;5036545;28;20449;-88
2023/07/25 08:34:16;;;;;;;3.38;3.08;;;;;;;28.02;59.86;98407.81;5054816;28;20025;-90
2023/07/25 08:36:41;;;;;;;3.28;2.97;;;;;;;27.84;60.08;98387.09;4992453;28;20038;-87
2023/07/25 08:39:06;;;;;;;3.03;2.70;;;;;;;27.92;60.15;98391.38;4992928;28;20073;-87
2023/07/25 08:41:35;;;;;;;2.55;2.35;;;;;;;28.03;60.14;98403.28;4992564;28;20405;-87
2023/07/25 08:44:01;;;;;;;3.63;3.30;;;;;;;28.02;60.07;98410.47;4993110;28;20034;-87
2023/07/25 08:46:28;;;;;;;3.50;3.20;;;;;;;27.94;59.54;98405.38;4992557;28;20038;-87
2023/07/25 08:49:00;;;;;;;5.05;3.10;;;;;;;28.01;60.22;98398.13;4992436;28;20030;-87
2023/07/25 08:51:27;;;;;;;4.43;2.92;;;;;;;28.20;60.47;98395.56;4976231;28;20046;-87
2023/07/25 08:54:01;;;;;;;3.88;3.08;;;;;;;28.34;59.51;98395.25;4992626;28;20037;-87
2023/07/25 08:56:27;;;;;;;4.82;3.33;;;;;;;28.37;58.61;98379.81;4992722;28;20449;-87
2023/07/25 08:58:54;;;;;;;3.92;3.22;;;;;;;28.51;57.99;98384.84;4992195;28;20117;-87
2023/07/25 09:01:20;;;;;;;3.22;2.92;;;;;;;28.66;58.06;98370.34;4992400;28;20723;-87
2023/07/25 09:03:47;;;;;;;3.30;3.10;;;;;;;28.71;57.25;98351.75;4992400;28;20482;-87
2023/07/25 09:06:13;;;;;;;4.78;3.40;;;;;;;28.56;57.10;98344.84;4992416;28;20065;-87
2023/07/25 09:08:38;;;;;;;3.85;3.53;;;;;;;28.49;56.83;98354.00;5047543;28;20044;-87
2023/07/25 09:11:06;;;;;;;4.03;3.40;;;;;;;28.26;57.14;98365.22;5036226;28;20033;-87
2023/07/25 09:13:32;;;;;;;4.95;3.72;;;;;;;27.99;57.94;98351.22;5035953;28;20029;-87
2023/07/25 09:15:57;;;;;;;4.15;3.78;;;;;;;27.93;57.95;98363.56;5053973;28;20040;-87
2023/07/25 09:18:23;;;;;;;3.85;3.55;;;;;;;27.81;58.34;98365.28;5053938;28;20049;-87
2023/07/25 09:20:49;;;;;;;4.28;3.95;;;;;;;27.61;58.03;98360.81;5052459;28;20104;-87
2023/07/25 09:23:21;;;;;;;4.22;3.83;;;;;;;27.38;59.35;98335.59;5053610;28;20108;-86
2023/07/25 09:25:47;;;;;;;4.00;3.60;;;;;;;27.56;59.67;98362.50;5053664;28;20108;-86
2023/07/25 09:28:12;;;;;;;4.25;3.95;;;;;;;27.53;59.17;98353.03;5035714;28;20781;-86
2023/07/25 09:30:46;;;;;;;3.95;3.58;;;;;;;27.72;59.66;98382.59;5053299;28;20033;-86
2023/07/25 09:33:24;;;;;;;3.85;3.45;;;;;;;27.73;59.78;98368.22;5035729;28;20029;-86
2023/07/25 09:35:50;;;;;;;3.67;3.38;;;;;;;27.89;58.16;98389.13;5053522;28;20028;-86
2023/07/25 09:38:15;;;;;;;3.50;3.20;;;;;;;27.80;58.67;98396.56;5035452;28;20021;-88
2023/07/25 09:40:41;;;;;;;4.65;4.25;;;;;;;27.80;59.09;98385.06;5053120;28;20473;-88
2023/07/25 09:43:06;;;;;;;4.13;3.70;;;;;;;27.81;59.06;98387.53;5035577;28;20029;-87
2023/07/25 09:45:36;;;;;;;3.50;3.20;;;;;;;27.74;58.22;98378.72;5053269;28;20029;-87
2023/07/25 09:48:02;;;;;;;4.07;3.78;;;;;;;27.63;57.89;98357.13;5053247;28;20094;-87
2023/07/25 09:50:33;;;;;;;3.97;3.55;;;;;;;27.69;57.70;98367.78;5053330;28;20430;-87
2023/07/25 09:53:03;;;;;;;3.92;3.60;;;;;;;27.59;57.96;98344.16;5052942;28;20032;-86
2023/07/25 09:55:29;;;;;;;4.20;3.80;;;;;;;27.63;57.82;98359.78;5053163;28;20381;-86
2023/07/25 09:57:55;;;;;;;7.68;4.75;;;;;;;27.61;58.34;98365.38;5052228;28;20043;-86
2023/07/25 10:00:20;;;;;;;4.20;3.80;;;;;;;27.50;58.22;98355.31;5051650;28;20021;-86
2023/07/25 10:02:47;;;;;;;4.15;3.75;;;;;;;27.57;58.33;98353.44;5033549;28;20021;-86
2023/07/25 10:05:14;;;;;;;3.95;3.60;;;;;;;27.60;58.61;98364.53;5051543;28;20032;-86
2023/07/25 10:07:40;;;;;;;5.65;3.50;;;;;;;27.54;58.39;98352.00;5051191;28;20017;-86
2023/07/25 10:10:06;;;;;;;3.83;3.53;;;;;;;27.39;58.83;98338.09;5051405;28;20473;-86
2023/07/25 10:12:32;;;;;;;4.10;3.75;;;;;;;27.40;58.78;98360.31;5051831;28;20033;-86
2023/07/25 10:14:57;;;;;;;4.30;3.90;;;;;;;27.21;58.65;98345.94;5052155;28;20032;-86
2023/07/25 10:17:24;;;;;;;4.38;4.00;;;;;;;26.90;59.28;98334.06;5034835;28;20056;-86
2023/07/25 10:19:54;;;;;;;4.13;3.72;;;;;;;26.80;59.93;98342.53;5052323;28;20071;-86
2023/07/25 10:22:40;;;;;;;4.10;3.70;;;;;;;26.79;59.86;98353.41;5052543;28;20055;-86
2023/07/25 10:25:19;;;;;;;4.10;3.35;;;;;;;26.86;59.70;98360.38;5052662;28;20492;-86
2023/07/25 10:27:44;;;;;;;4.60;3.47;;;;;;;26.96;60.01;98346.59;5052459;28;20025;-86
2023/07/25 10:30:23;;;;;;;3.88;3.58;;;;;;;27.09;59.09;98341.28;5052461;28;20465;-86
2023/07/25 10:32:54;;;;;;;3.95;3.60;;;;;;;27.10;58.49;98339.41;5052113;28;20463;-86
2023/07/25 10:35:39;;;;;;;4.00;3.60;;;;;;;27.17;58.63;98350.88;5034655;28;20112;-86
2023/07/25 10:38:19;;;;;;;3.75;3.42;;;;;;;27.18;58.05;98331.16;5034061;28;20028;-86
2023/07/25 10:40:53;;;;;;;3.40;3.10;;;;;;;27.32;58.18;98339.97;5051993;28;20029;-86
2023/07/25 10:43:26;;;;;;;3.42;3.13;;;;;;;27.31;58.09;98311.59;5052420;28;20033;-86
2023/07/25 10:45:53;;;;;;;3.60;3.30;;;;;;;27.55;57.87;98337.59;5052066;28;20021;-86
2023/07/25 10:48:42;;;;;;;3.55;3.15;;;;;;;27.45;57.15;98309.69;5052371;28;20029;-86
2023/07/25 10:51:07;;;;;;;3.67;3.35;;;;;;;27.45;57.22;98320.38;5050812;28;20120;-86
2023/07/25 10:53:33;;;;;;;4.15;3.65;;;;;;;27.43;57.76;98311.72;5051695;28;20108;-86
2023/07/25 10:56:05;;;;;;;4.85;3.28;;;;;;;27.70;57.75;98337.34;5051832;28;20025;-86
2023/07/25 10:58:35;;;;;;;4.25;3.03;;;;;;;27.56;56.00;98320.53;5034202;28;20102;-86
2023/07/25 11:01:01;;;;;;;3.13;2.88;;;;;;;27.69;55.64;98333.03;5051818;28;20032;-86
2023/07/25 11:03:27;;;;;;;2.83;2.63;;;;;;;27.52;55.02;98318.50;5051307;28;20044;-86
2023/07/25 11:06:13;;;;;;;3.17;2.80;;;;;;;27.64;55.16;98334.69;5047479;28;20051;-86
2023/07/25 11:08:40;;;;;;;3.65;2.53;;;;;;;27.60;55.71;98331.59;5036396;28;20044;-86
2023/07/25 11:11:07;;;;;;;3.15;2.92;;;;;;;27.35;56.34;98321.66;5031819;28;20017;-86
2023/07/25 11:13:35;;;;;;;4.05;2.92;;;;;;;27.15;57.23;98342.28;5046374;28;20052;-86
2023/07/25 11:16:05;;;;;;;3.47;2.90;;;;;;;26.95;57.42;98328.91;5050991;28;20033;-85
2023/07/25 11:18:33;;;;;;;3.20;2.90;;;;;;;26.93;58.24;98338.19;5051377;28;20021;-87
2023/07/25 11:21:00;;;;;;;3.30;3.00;;;;;;;26.72;57.95;98304.53;5051310;28;20461;-87
2023/07/25 11:23:25;;;;;;;3.08;2.78;;;;;;;26.72;58.28;98301.84;5051669;28;20025;-87
2023/07/25 11:25:56;;;;;;;3.35;3.05;;;;;;;26.58;57.92;98306.38;5051546;28;20071;-87
2023/07/25 11:28:22;;;;;;;3.35;2.78;;;;;;;26.68;58.31;98317.47;5033930;28;20033;-87
2023/07/25 11:30:47;;;;;;;5.00;2.85;;;;;;;26.72;58.95;98301.84;5051403;28;20032;-87